Time;durP1;ratioP1;P1;durP2;ratioP2;P2;SDS_P1;SDS_P2;PMS_P1;PMS_P2;Temp;Humidity;BMP_temperature;BMP_pressure;BME280_temperature;BME280_humidity;BME280_pressure;Samples;Min_cycle;Max_cycle;Signal;HPM_P1;HPM_P2
2021/09/06 00:35:31;;;;;;;15.53;11.83;;;16.30;98.30;;;;;;3969830;29;20471;-85
2021/09/06 01:19:29;;;;;;;12.00;10.60;;;16.00;98.30;;;;;;4235606;27;20582;-82
2021/09/06 04:42:54;;;;;;;15.70;12.53;;;13.90;98.30;;;;;;4034425;29;20555;-81
2021/09/06 04:44:57;;;;;;;17.83;12.43;;;13.90;98.30;;;;;;4046889;29;20468;-81
2021/09/06 04:47:01;;;;;;;14.70;11.83;;;14.00;98.30;;;;;;4110269;28;21027;-85
2021/09/06 04:49:05;;;;;;;25.70;12.87;;;14.10;98.30;;;;;;4161549;28;20510;-83
2021/09/06 04:51:08;;;;;;;16.00;12.07;;;14.10;98.30;;;;;;4195103;28;20467;-83
2021/09/06 04:53:11;;;;;;;30.23;11.37;;;14.00;98.30;;;;;;4196840;28;20550;-82
2021/09/06 04:55:14;;;;;;;22.93;12.73;;;14.00;98.30;;;;;;4192136;28;20470;-82
2021/09/06 04:57:17;;;;;;;31.00;11.93;;;13.90;98.30;;;;;;4194360;28;20477;-82
2021/09/06 04:59:22;;;;;;;58.73;29.13;;;13.90;98.30;;;;;;4194624;28;20471;-82
2021/09/06 05:01:25;;;;;;;39.97;23.20;;;14.00;98.30;;;;;;4189296;28;20550;-82
2021/09/06 05:03:29;;;;;;;55.47;27.27;;;14.30;98.30;;;;;;4194429;28;20467;-82
2021/09/06 05:05:32;;;;;;;58.60;15.30;;;14.40;98.30;;;;;;4189991;28;20509;-82
2021/09/06 05:07:35;;;;;;;34.73;13.47;;;14.40;98.30;;;;;;4301555;22;21037;-81
2021/09/06 05:09:38;;;;;;;21.73;12.27;;;14.30;98.30;;;;;;4165362;28;20477;-81
2021/09/06 05:11:41;;;;;;;21.63;11.30;;;14.30;98.30;;;;;;4165885;28;20469;-81
2021/09/06 05:13:44;;;;;;;17.70;12.90;;;14.30;98.30;;;;;;4166134;28;20826;-81
2021/09/06 05:15:49;;;;;;;92.73;56.17;;;14.40;98.30;;;;;;4167231;28;20848;-81
2021/09/06 05:17:52;;;;;;;52.00;30.97;;;14.60;98.30;;;;;;4166266;28;20484;-82
2021/09/06 05:19:55;;;;;;;40.07;21.57;;;14.80;98.30;;;;;;4166660;28;20519;-82
2021/09/06 05:22:00;;;;;;;26.20;16.83;;;14.90;98.30;;;;;;4166229;28;20957;-81
2021/09/06 05:24:03;;;;;;;27.10;18.80;;;14.90;98.30;;;;;;4165899;28;20897;-81
2021/09/06 05:26:07;;;;;;;33.43;20.20;;;14.90;98.30;;;;;;4166358;28;20475;-81
2021/09/06 05:28:10;;;;;;;27.17;18.73;;;14.80;98.30;;;;;;4166382;28;20493;-81
2021/09/06 05:30:13;;;;;;;31.70;15.50;;;14.80;98.30;;;;;;4167693;28;20483;-81
2021/09/06 05:32:18;;;;;;;27.80;18.10;;;14.70;98.30;;;;;;4165782;28;20473;-82
2021/09/06 05:34:20;;;;;;;34.43;15.77;;;14.70;98.30;;;;;;4167487;28;21006;-82
2021/09/06 05:36:23;;;;;;;47.00;20.40;;;14.60;98.30;;;;;;4167118;28;20564;-82
2021/09/06 05:38:26;;;;;;;46.73;18.40;;;14.60;98.30;;;;;;4167008;28;20500;-82
2021/09/06 05:40:29;;;;;;;39.77;15.33;;;14.70;98.30;;;;;;4167357;28;20465;-82
2021/09/06 05:42:32;;;;;;;29.77;14.87;;;14.80;98.30;;;;;;4168856;28;20476;-82
2021/09/06 05:44:35;;;;;;;43.93;15.47;;;14.80;98.30;;;;;;4155364;28;20579;-82
2021/09/06 05:46:38;;;;;;;25.87;12.83;;;14.80;98.30;;;;;;4164992;28;20475;-82
2021/09/06 05:48:43;;;;;;;21.13;11.63;;;14.80;98.30;;;;;;4158810;28;20531;-82
2021/09/06 05:50:46;;;;;;;24.17;13.43;;;14.80;98.30;;;;;;4164473;28;20529;-82
2021/09/06 05:52:49;;;;;;;31.37;14.17;;;14.80;98.30;;;;;;4164693;28;20833;-82
2021/09/06 05:54:52;;;;;;;31.67;14.73;;;14.70;98.30;;;;;;4166441;28;20472;-81
2021/09/06 05:56:55;;;;;;;32.07;15.10;;;14.50;98.30;;;;;;4168462;28;20823;-82
2021/09/06 05:58:58;;;;;;;42.80;15.37;;;14.30;98.30;;;;;;4168887;28;20464;-82
2021/09/06 06:01:01;;;;;;;23.23;14.40;;;14.10;98.30;;;;;;4168893;28;20842;-82
2021/09/06 06:03:04;;;;;;;27.57;14.53;;;13.90;98.30;;;;;;4166511;28;20491;-82
2021/09/06 06:05:10;;;;;;;56.17;17.70;;;13.80;98.30;;;;;;4169278;28;20476;-82
2021/09/06 06:07:17;;;;;;;29.77;14.20;;;13.70;98.30;;;;;;4168217;28;21190;-81
2021/09/06 06:09:20;;;;;;;29.10;14.40;;;13.50;98.30;;;;;;4168797;28;20993;-82
2021/09/06 06:11:23;;;;;;;34.90;13.60;;;13.60;98.30;;;;;;4169819;28;20465;-81
2021/09/06 06:13:26;;;;;;;27.23;15.20;;;13.80;98.30;;;;;;4168941;28;20530;-82
2021/09/06 06:15:29;;;;;;;27.10;14.10;;;13.90;98.30;;;;;;4169684;28;20945;-82
2021/09/06 06:17:32;;;;;;;29.50;14.63;;;14.00;98.30;;;;;;4168985;28;20481;-81
2021/09/06 06:19:35;;;;;;;21.80;14.37;;;14.10;98.30;;;;;;4170063;28;20548;-82
2021/09/06 06:21:39;;;;;;;20.77;13.40;;;14.30;98.30;;;;;;4169456;28;20468;-81
2021/09/06 06:23:42;;;;;;;28.30;13.97;;;14.40;98.30;;;;;;4169593;28;20465;-81
2021/09/06 06:25:45;;;;;;;18.37;14.23;;;14.50;98.30;;;;;;4169808;28;20469;-82
2021/09/06 06:27:48;;;;;;;23.20;13.50;;;14.60;98.30;;;;;;4160287;28;21001;-81
2021/09/06 06:29:51;;;;;;;28.53;13.60;;;14.60;98.30;;;;;;4169013;28;21118;-82
2021/09/06 06:31:55;;;;;;;21.97;12.43;;;14.80;98.30;;;;;;4169608;28;20475;-82
2021/09/06 06:33:57;;;;;;;20.67;13.17;;;14.90;98.30;;;;;;4168984;28;20473;-82
2021/09/06 06:36:02;;;;;;;17.53;12.20;;;15.00;98.30;;;;;;4169895;28;20542;-82
2021/09/06 06:38:07;;;;;;;18.40;12.57;;;15.10;98.30;;;;;;4168435;28;20484;-82
2021/09/06 06:40:11;;;;;;;21.10;13.23;;;15.30;98.30;;;;;;4169638;28;20453;-82
2021/09/06 06:42:14;;;;;;;19.43;13.20;;;15.50;98.30;;;;;;4170367;28;20484;-82
2021/09/06 06:44:17;;;;;;;18.57;12.90;;;15.50;98.30;;;;;;4167824;28;20688;-81
2021/09/06 06:46:20;;;;;;;21.20;14.33;;;15.60;98.30;;;;;;4173155;28;20484;-81
2021/09/06 06:48:23;;;;;;;14.90;12.27;;;15.60;98.30;;;;;;4166916;28;20856;-81
2021/09/06 06:50:26;;;;;;;18.97;12.50;;;15.60;98.30;;;;;;4165596;28;20479;-82
2021/09/06 06:52:29;;;;;;;19.23;12.47;;;15.80;98.30;;;;;;4166762;28;21013;-81
2021/09/06 06:54:33;;;;;;;17.47;13.43;;;15.90;98.30;;;;;;4166910;28;20479;-81
2021/09/06 06:56:36;;;;;;;96.53;64.07;;;16.00;98.30;;;;;;4162679;28;20468;-82
2021/09/06 06:58:39;;;;;;;38.77;26.87;;;16.10;98.30;;;;;;4166347;28;20485;-81
2021/09/06 07:00:42;;;;;;;58.60;36.20;;;16.30;98.30;;;;;;4166912;28;20518;-82
2021/09/06 07:02:45;;;;;;;26.50;18.93;;;16.40;98.30;;;;;;4166930;28;20969;-81
2021/09/06 07:04:48;;;;;;;29.53;21.20;;;16.60;98.30;;;;;;4166361;28;20472;-81
2021/09/06 07:06:51;;;;;;;28.70;21.00;;;16.70;98.30;;;;;;4166762;28;20824;-81
2021/09/06 07:08:54;;;;;;;38.27;28.10;;;16.70;98.30;;;;;;4163096;28;20500;-82
2021/09/06 07:10:58;;;;;;;44.60;30.87;;;16.90;98.30;;;;;;4167755;28;20476;-82
2021/09/06 07:13:01;;;;;;;83.00;53.13;;;17.00;98.30;;;;;;4167633;28;20480;-82
2021/09/06 07:15:05;;;;;;;36.57;24.33;;;17.10;98.30;;;;;;4161840;28;20463;-82
2021/09/06 07:17:08;;;;;;;23.57;17.27;;;17.10;98.30;;;;;;4167387;28;20555;-81
2021/09/06 07:19:11;;;;;;;21.37;15.80;;;17.00;98.30;;;;;;4168231;28;20476;-82
2021/09/06 07:21:14;;;;;;;26.67;17.70;;;17.00;98.30;;;;;;4168313;28;20465;-82
2021/09/06 07:23:17;;;;;;;26.70;19.20;;;17.00;98.30;;;;;;4167246;28;20472;-82
2021/09/06 07:25:20;;;;;;;22.83;16.60;;;16.90;98.30;;;;;;4163842;28;20538;-81
2021/09/06 07:27:24;;;;;;;23.00;17.27;;;17.00;98.30;;;;;;4163801;28;20994;-82
2021/09/06 07:29:27;;;;;;;25.63;17.60;;;17.20;98.30;;;;;;4167815;28;20501;-81
2021/09/06 07:31:30;;;;;;;22.37;17.63;;;17.30;98.30;;;;;;4167986;28;20469;-82
2021/09/06 07:33:34;;;;;;;24.00;16.97;;;17.30;98.30;;;;;;4167939;28;20841;-82
2021/09/06 07:35:37;;;;;;;21.90;17.17;;;17.50;98.30;;;;;;4166456;28;20488;-82
2021/09/06 07:37:40;;;;;;;24.20;17.33;;;17.40;98.30;;;;;;4167979;28;20496;-81
2021/09/06 07:39:46;;;;;;;26.33;17.97;;;17.40;98.30;;;;;;4164772;28;20468;-81
2021/09/06 07:41:49;;;;;;;24.20;17.80;;;17.40;98.30;;;;;;4165710;28;20484;-82
2021/09/06 07:43:54;;;;;;;23.30;16.80;;;17.60;98.30;;;;;;4167764;28;20473;-82
2021/09/06 07:45:57;;;;;;;23.13;17.10;;;17.80;98.30;;;;;;4167692;28;20477;-82
2021/09/06 07:48:00;;;;;;;23.03;16.27;;;17.90;98.30;;;;;;4167842;28;20497;-82
2021/09/06 07:50:04;;;;;;;23.30;16.93;;;18.00;98.30;;;;;;4166376;28;20503;-82
2021/09/06 07:52:07;;;;;;;21.53;15.37;;;17.90;98.30;;;;;;4171505;28;20473;-81
2021/09/06 07:54:10;;;;;;;27.00;16.80;;;18.00;98.30;;;;;;4165654;28;20468;-81
2021/09/06 07:56:13;;;;;;;26.40;18.30;;;18.00;98.30;;;;;;4166826;28;20634;-81
2021/09/06 07:58:15;;;;;;;22.63;16.57;;;18.20;98.30;;;;;;4166251;28;20489;-81
2021/09/06 08:00:20;;;;;;;24.93;16.77;;;18.40;98.30;;;;;;4165801;28;21002;-82
2021/09/06 08:02:23;;;;;;;23.90;17.03;;;18.40;98.30;;;;;;4165511;28;20482;-82
2021/09/06 08:04:26;;;;;;;24.63;17.13;;;18.30;98.30;;;;;;4165817;28;20473;-81
2021/09/06 08:06:29;;;;;;;20.40;16.00;;;18.30;98.30;;;;;;4166271;28;21373;-82
2021/09/06 08:08:32;;;;;;;22.00;17.23;;;18.30;98.30;;;;;;4164596;28;20500;-81
2021/09/06 08:10:35;;;;;;;21.20;16.87;;;18.30;98.30;;;;;;4163431;28;20461;-82
2021/09/06 08:12:38;;;;;;;22.73;15.93;;;18.30;98.30;;;;;;4165840;28;20845;-81
2021/09/06 08:14:41;;;;;;;25.77;17.03;;;18.30;98.30;;;;;;4165644;28;21316;-81
2021/09/06 08:16:45;;;;;;;26.60;16.07;;;18.40;98.30;;;;;;4165466;28;20818;-82
2021/09/06 08:18:48;;;;;;;19.63;13.97;;;18.70;98.30;;;;;;4166134;28;20986;-82
2021/09/06 08:20:51;;;;;;;24.07;15.93;;;18.80;98.30;;;;;;4166003;28;20719;-81
2021/09/06 08:22:54;;;;;;;18.43;13.40;;;19.00;98.30;;;;;;4166502;28;20473;-82
2021/09/06 08:24:57;;;;;;;19.60;15.00;;;19.10;98.30;;;;;;4166273;28;20472;-82
2021/09/06 08:27:00;;;;;;;20.07;15.27;;;19.30;98.30;;;;;;4166428;28;20479;-81
2021/09/06 08:29:03;;;;;;;20.50;14.70;;;19.50;98.30;;;;;;4165316;28;20491;-82
2021/09/06 08:31:06;;;;;;;22.40;14.80;;;19.70;98.30;;;;;;4167022;28;20460;-82
2021/09/06 08:33:10;;;;;;;21.27;14.80;;;19.80;98.30;;;;;;4161441;28;20476;-81
2021/09/06 08:35:14;;;;;;;19.90;15.17;;;19.90;98.30;;;;;;4164254;28;21030;-82
2021/09/06 08:37:17;;;;;;;18.80;15.30;;;19.90;98.30;;;;;;4167016;28;20504;-82
2021/09/06 08:39:20;;;;;;;21.57;15.90;;;20.00;98.30;;;;;;4166223;28;20471;-81
2021/09/06 08:41:23;;;;;;;23.77;16.07;;;19.90;98.30;;;;;;4165487;28;20500;-82
2021/09/06 08:43:27;;;;;;;18.53;15.27;;;19.90;98.30;;;;;;4166983;28;20568;-82
2021/09/06 08:45:30;;;;;;;20.30;15.37;;;20.10;98.30;;;;;;4166941;28;20540;-82
2021/09/06 08:47:33;;;;;;;17.70;14.37;;;20.30;98.30;;;;;;4167049;28;20489;-82
2021/09/06 08:49:37;;;;;;;20.10;14.33;;;20.30;98.30;;;;;;4167929;28;20473;-82
2021/09/06 08:51:40;;;;;;;22.60;14.90;;;20.40;98.30;;;;;;4169808;28;20832;-82
2021/09/06 08:53:43;;;;;;;20.13;14.13;;;20.60;98.30;;;;;;4167565;28;20547;-82
2021/09/06 08:55:46;;;;;;;22.37;16.13;;;20.80;98.30;;;;;;4167548;28;20465;-82
2021/09/06 08:58:09;;;;;;;20.93;14.87;;;20.90;98.30;;;;;;4168229;28;20481;-81
2021/09/06 09:00:13;;;;;;;19.57;14.90;;;20.80;98.30;;;;;;4165076;28;20492;-82
2021/09/06 09:02:23;;;;;;;27.57;20.67;;;21.00;98.30;;;;;;4155434;28;21016;-82
2021/09/06 09:04:28;;;;;;;32.00;23.20;;;21.20;98.30;;;;;;4165016;28;20992;-82
2021/09/06 09:06:38;;;;;;;42.67;34.50;;;21.20;98.30;;;;;;4161766;28;20492;-81
2021/09/06 09:08:45;;;;;;;35.83;23.57;;;21.40;98.30;;;;;;4165849;28;20539;-82
2021/09/06 09:10:48;;;;;;;21.10;17.30;;;21.60;98.30;;;;;;4160625;28;20474;-82
2021/09/06 09:12:51;;;;;;;24.33;16.30;;;21.80;98.30;;;;;;4165523;28;20960;-82
2021/09/06 09:14:55;;;;;;;17.93;14.37;;;21.90;98.30;;;;;;4166354;28;20942;-82
2021/09/06 09:16:59;;;;;;;18.63;15.07;;;22.10;98.30;;;;;;4165625;28;20473;-81
2021/09/06 09:19:05;;;;;;;21.07;16.50;;;22.20;98.30;;;;;;4163812;28;20897;-82
2021/09/06 09:21:11;;;;;;;37.20;30.20;;;22.10;98.30;;;;;;4166696;28;20476;-82
2021/09/06 09:23:15;;;;;;;34.87;27.90;;;22.10;98.30;;;;;;4166527;28;20465;-82
2021/09/06 09:25:18;;;;;;;29.47;21.90;;;22.10;98.30;;;;;;4166263;28;20469;-82
2021/09/06 09:27:30;;;;;;;20.20;15.10;;;22.40;98.30;;;;;;4166330;28;20493;-82
2021/09/06 09:29:34;;;;;;;17.50;14.30;;;22.70;98.30;;;;;;4166758;28;20993;-82
2021/09/06 09:31:37;;;;;;;18.60;15.30;;;22.80;98.30;;;;;;4169737;28;21029;-82
2021/09/06 09:33:45;;;;;;;19.33;14.53;;;23.00;97.90;;;;;;4169073;28;20475;-82
2021/09/06 09:35:49;;;;;;;17.00;13.60;;;22.70;97.60;;;;;;4169667;28;20456;-82
2021/09/06 09:38:01;;;;;;;18.20;12.90;;;22.60;98.30;;;;;;4165563;28;20503;-82
2021/09/06 09:40:08;;;;;;;18.77;14.93;;;22.90;98.30;;;;;;4168715;28;20468;-83
2021/09/06 09:42:12;;;;;;;16.13;13.97;;;22.90;96.70;;;;;;4169305;28;20483;-82
2021/09/06 09:44:20;;;;;;;16.90;14.83;;;23.00;97.10;;;;;;4168881;28;20477;-82
2021/09/06 09:46:23;;;;;;;20.90;15.00;;;23.40;95.80;;;;;;4168008;28;20473;-82
2021/09/06 09:48:26;;;;;;;17.70;14.40;;;23.70;95.60;;;;;;4168102;28;20488;-82
2021/09/06 09:50:32;;;;;;;20.33;15.97;;;23.90;94.20;;;;;;4168555;28;20966;-82
2021/09/06 09:52:35;;;;;;;16.30;14.47;;;23.70;93.70;;;;;;4168691;28;20465;-82
2021/09/06 09:54:38;;;;;;;21.90;14.47;;;23.90;94.80;;;;;;4167222;28;20468;-82
2021/09/06 09:56:43;;;;;;;16.23;13.60;;;24.10;94.30;;;;;;4168851;28;20999;-82
2021/09/06 09:58:46;;;;;;;22.60;15.17;;;24.20;92.50;;;;;;4166461;28;20484;-82
2021/09/06 10:00:50;;;;;;;18.03;14.20;;;24.20;91.90;;;;;;4169752;28;20493;-82
2021/09/06 10:02:56;;;;;;;15.23;13.63;;;24.40;92.00;;;;;;4173948;28;20469;-82
2021/09/06 10:05:04;;;;;;;16.20;14.27;;;24.40;91.30;;;;;;4169884;28;20803;-83
2021/09/06 10:07:09;;;;;;;16.33;14.53;;;24.30;91.30;;;;;;4170062;28;20484;-83
2021/09/06 10:09:15;;;;;;;15.77;14.13;;;24.20;91.60;;;;;;4169323;28;20468;-82
2021/09/06 10:11:18;;;;;;;14.70;12.73;;;24.10;91.20;;;;;;4169542;28;20925;-82
2021/09/06 10:13:25;;;;;;;17.50;14.07;;;24.00;91.50;;;;;;4170111;28;20551;-82
2021/09/06 10:15:28;;;;;;;16.03;13.00;;;23.80;91.60;;;;;;4170491;28;20469;-82
2021/09/06 10:17:35;;;;;;;15.77;13.40;;;23.60;93.00;;;;;;4169843;28;20488;-81
2021/09/06 10:19:40;;;;;;;16.27;13.20;;;23.50;93.20;;;;;;4169490;28;20472;-82
2021/09/06 10:21:48;;;;;;;17.97;13.73;;;23.40;94.10;;;;;;4168517;28;20503;-83
2021/09/06 10:23:52;;;;;;;14.73;12.90;;;23.30;94.20;;;;;;4166538;28;20488;-82
2021/09/06 10:25:55;;;;;;;16.10;13.60;;;23.20;95.10;;;;;;4169882;28;20468;-82
2021/09/06 10:28:03;;;;;;;14.63;12.47;;;23.40;95.70;;;;;;4169044;28;20493;-82
2021/09/06 10:30:14;;;;;;;16.13;12.83;;;23.60;95.50;;;;;;4167362;28;20479;-82
2021/09/06 10:32:17;;;;;;;17.10;13.17;;;23.80;94.70;;;;;;4166977;28;20914;-82
2021/09/06 10:34:22;;;;;;;16.93;13.27;;;23.90;94.80;;;;;;4168236;28;20480;-82
2021/09/06 10:36:25;;;;;;;15.63;12.80;;;24.10;93.50;;;;;;4167231;28;20488;-82
2021/09/06 10:38:38;;;;;;;18.07;14.10;;;24.40;92.70;;;;;;4165080;28;20477;-81
2021/09/06 10:40:43;;;;;;;17.57;14.80;;;24.60;91.60;;;;;;4165068;28;20463;-82
2021/09/06 10:42:46;;;;;;;16.23;14.53;;;24.80;91.00;;;;;;4165233;28;20495;-82
2021/09/06 10:44:58;;;;;;;15.80;13.63;;;24.90;90.50;;;;;;4148637;28;20450;-82
2021/09/06 10:47:09;;;;;;;15.77;12.40;;;24.60;90.80;;;;;;4161126;28;20551;-81
2021/09/06 10:49:12;;;;;;;34.83;28.60;;;24.40;92.00;;;;;;4163172;28;20469;-81
2021/09/06 10:51:23;;;;;;;38.60;33.63;;;24.60;92.40;;;;;;4164945;28;20469;-82
2021/09/06 10:53:26;;;;;;;24.80;22.10;;;24.70;91.40;;;;;;4165167;28;20811;-82
2021/09/06 10:55:29;;;;;;;16.43;14.10;;;24.60;91.70;;;;;;4164548;28;20845;-82
2021/09/06 10:57:36;;;;;;;16.90;12.80;;;24.60;91.40;;;;;;4163301;28;20492;-81
2021/09/06 10:59:44;;;;;;;14.07;12.57;;;24.50;91.30;;;;;;4158511;28;20869;-82
2021/09/06 11:01:51;;;;;;;14.87;12.80;;;24.70;91.60;;;;;;4149065;28;20488;-81
2021/09/06 11:03:58;;;;;;;14.43;12.00;;;24.70;90.20;;;;;;4153376;28;20480;-82
2021/09/06 11:06:01;;;;;;;16.93;13.13;;;24.90;90.60;;;;;;4165479;28;20472;-82
2021/09/06 11:17:01;;;;;;;14.30;12.80;;;24.90;89.50;;;;;;4078498;29;20588;-85
2021/09/06 11:19:16;;;;;;;16.33;13.47;;;24.60;89.50;;;;;;4135654;28;20521;-82
2021/09/06 11:21:23;;;;;;;15.93;13.40;;;25.10;88.60;;;;;;4125791;28;20470;-83
2021/09/06 11:23:34;;;;;;;16.43;14.30;;;25.80;87.00;;;;;;4133369;28;21182;-82
2021/09/06 11:25:49;;;;;;;13.97;12.03;;;26.30;85.60;;;;;;4135469;28;20525;-83
2021/09/06 11:28:12;;;;;;;14.70;13.07;;;26.70;85.40;;;;;;4128056;28;20494;-82
2021/09/06 11:31:01;;;;;;;12.90;11.70;;;27.10;84.50;;;;;;4134503;28;20490;-83
2021/09/06 11:33:14;;;;;;;25.83;23.13;;;27.20;83.10;;;;;;4133941;28;20474;-83
2021/09/06 11:35:23;;;;;;;21.73;17.43;;;26.80;84.70;;;;;;4127484;28;20471;-82
2021/09/06 11:37:29;;;;;;;38.97;33.77;;;25.80;85.80;;;;;;4135264;28;20478;-83
2021/09/06 11:39:42;;;;;;;24.30;21.77;;;25.60;87.70;;;;;;4137500;28;20450;-83
2021/09/06 11:42:00;;;;;;;14.10;12.70;;;25.80;86.10;;;;;;4139065;28;20491;-82
2021/09/06 11:44:09;;;;;;;15.03;13.53;;;25.30;85.80;;;;;;4140417;28;20529;-83
2021/09/06 11:46:18;;;;;;;12.70;11.47;;;24.90;86.20;;;;;;4140702;28;20569;-84
2021/09/06 11:48:24;;;;;;;13.63;11.93;;;24.70;87.30;;;;;;4139745;28;21058;-83
2021/09/06 11:51:10;;;;;;;12.13;10.90;;;24.50;87.40;;;;;;4137041;28;20478;-82
2021/09/06 12:01:51;;;;;;;14.13;12.20;;;25.70;85.00;;;;;;4131812;28;20471;-83
2021/09/06 12:09:21;;;;;;;13.40;11.33;;;25.50;84.30;;;;;;4113389;28;20549;-83
2021/09/06 12:11:38;;;;;;;12.80;11.50;;;25.80;83.10;;;;;;4132972;28;20474;-83
2021/09/06 12:13:58;;;;;;;15.07;11.80;;;25.80;83.20;;;;;;4134017;28;20499;-83
2021/09/06 12:16:09;;;;;;;12.23;11.03;;;26.70;83.80;;;;;;4121049;28;20836;-84
2021/09/06 12:18:24;;;;;;;13.10;11.33;;;27.30;80.40;;;;;;4133071;28;20537;-84
2021/09/06 12:20:43;;;;;;;12.77;11.20;;;27.60;79.30;;;;;;4133305;28;20467;-82
2021/09/06 12:22:59;;;;;;;13.57;12.27;;;27.40;79.30;;;;;;4133303;28;20499;-83
2021/09/06 12:25:08;;;;;;;35.83;32.07;;;27.20;79.00;;;;;;4133052;28;20474;-83
2021/09/06 13:38:13;;;;;;;16.33;12.50;;;24.30;85.10;;;;;;3931157;30;20464;-81
2021/09/06 15:20:30;;;;;;;17.10;12.60;;;22.40;95.40;;;;;;3916639;30;20926;-83
2021/09/06 15:40:31;;;;;;;14.27;11.37;;;22.40;97.20;;;;;;4095923;28;20511;-83
2021/09/06 15:42:39;;;;;;;14.70;11.00;;;22.30;97.50;;;;;;4092378;29;20578;-83
2021/09/06 15:54:22;;;;;;;13.50;9.53;;;22.00;96.00;;;;;;4078108;29;21021;-83
2021/09/06 15:56:41;;;;;;;12.60;9.03;;;22.00;96.40;;;;;;4076731;29;20478;-84
2021/09/06 15:58:48;;;;;;;11.13;8.63;;;21.90;96.00;;;;;;4075321;29;20495;-83
2021/09/06 16:00:53;;;;;;;11.93;8.47;;;21.90;95.20;;;;;;4076780;29;20529;-83
2021/09/06 16:15:38;;;;;;;8.70;6.90;;;21.70;91.80;;;;;;4106758;28;20473;-83
2021/09/06 16:27:24;;;;;;;12.10;8.17;;;21.70;91.80;;;;;;4075666;29;20512;-83
2021/09/06 16:29:29;;;;;;;10.33;7.30;;;21.50;92.30;;;;;;4105477;28;20496;-83
2021/09/06 16:31:38;;;;;;;10.37;7.60;;;21.60;92.20;;;;;;4105383;28;20574;-83
2021/09/06 16:33:44;;;;;;;8.13;7.33;;;21.50;92.90;;;;;;4127257;28;20467;-83
2021/09/06 16:36:25;;;;;;;9.17;6.87;;;21.50;93.30;;;;;;4135348;28;20471;-85
2021/09/06 16:43:12;;;;;;;7.87;7.03;;;21.50;94.20;;;;;;4136218;28;20434;-83
2021/09/06 16:48:49;;;;;;;10.43;8.30;;;21.40;95.80;;;;;;4126032;28;20483;-83
2021/09/06 16:57:34;;;;;;;22.60;17.47;;;21.20;97.20;;;;;;4125302;28;20467;-83
2021/09/06 16:59:53;;;;;;;14.47;12.57;;;21.20;97.70;;;;;;4135878;28;20490;-83
2021/09/06 17:01:58;;;;;;;12.77;10.90;;;21.20;97.70;;;;;;4134288;28;20474;-84
2021/09/06 17:04:08;;;;;;;14.40;9.33;;;21.10;97.70;;;;;;4135133;28;20497;-83
2021/09/06 17:06:34;;;;;;;11.07;9.37;;;21.10;97.50;;;;;;4117863;28;20839;-83
2021/09/06 17:08:59;;;;;;;12.37;10.10;;;21.10;97.50;;;;;;4131125;28;20694;-84
2021/09/06 17:11:05;;;;;;;9.20;8.20;;;21.10;97.80;;;;;;4131114;28;20483;-84
2021/09/06 17:15:32;;;;;;;11.63;8.23;;;20.90;98.30;;;;;;4130589;28;20933;-83
2021/09/06 17:17:39;;;;;;;20.53;16.23;;;20.90;98.30;;;;;;4131397;28;20477;-84
2021/09/06 17:19:45;;;;;;;35.00;27.03;;;20.90;98.30;;;;;;4131423;28;20475;-84
2021/09/06 17:21:53;;;;;;;26.63;19.73;;;20.90;98.30;;;;;;4129486;28;20497;-83
2021/09/06 17:23:56;;;;;;;20.73;17.37;;;20.90;98.30;;;;;;4121181;28;20483;-84
2021/09/06 17:25:59;;;;;;;24.03;16.20;;;20.90;98.30;;;;;;4125849;28;20497;-83
2021/09/06 17:28:02;;;;;;;21.23;15.73;;;20.90;98.30;;;;;;4130869;28;20487;-83
2021/09/06 17:30:06;;;;;;;17.73;14.23;;;20.80;98.30;;;;;;4131078;28;20471;-84
2021/09/06 17:32:10;;;;;;;15.87;11.87;;;20.80;98.30;;;;;;4130897;28;21059;-84
2021/09/06 17:34:13;;;;;;;11.90;10.57;;;20.90;98.30;;;;;;4130643;28;20468;-84
2021/09/06 17:36:16;;;;;;;9.73;8.70;;;20.80;98.30;;;;;;4130725;28;20459;-84
2021/09/06 17:38:19;;;;;;;11.83;9.20;;;20.80;98.30;;;;;;4130580;28;20503;-83
2021/09/06 17:40:22;;;;;;;12.73;10.87;;;20.70;98.30;;;;;;4131116;28;20495;-84
2021/09/06 17:42:25;;;;;;;14.10;11.10;;;20.70;98.30;;;;;;4126903;28;20535;-83
2021/09/06 17:44:28;;;;;;;14.10;10.63;;;20.70;98.30;;;;;;4129479;28;20487;-84
2021/09/06 17:46:31;;;;;;;11.60;8.87;;;20.60;98.30;;;;;;4131280;28;20471;-83
2021/09/06 17:48:36;;;;;;;11.97;10.10;;;20.60;98.30;;;;;;4131249;28;21004;-84
2021/09/06 17:50:39;;;;;;;14.33;9.90;;;20.60;98.30;;;;;;4131640;28;20467;-83
2021/09/06 17:52:42;;;;;;;10.60;9.37;;;20.60;98.30;;;;;;4129954;28;20497;-83
2021/09/06 17:54:46;;;;;;;11.57;9.93;;;20.60;98.30;;;;;;4132829;28;20833;-83
2021/09/06 17:56:49;;;;;;;12.50;8.70;;;20.60;98.30;;;;;;4131295;28;20955;-84
2021/09/06 17:58:52;;;;;;;10.53;9.00;;;20.60;98.30;;;;;;4119374;28;20568;-83
2021/09/06 18:00:55;;;;;;;13.80;9.20;;;20.50;98.30;;;;;;4122709;28;20996;-84
2021/09/06 18:02:59;;;;;;;15.37;9.67;;;20.50;98.30;;;;;;4127570;28;20479;-83
2021/09/06 18:05:03;;;;;;;11.87;8.53;;;20.50;98.30;;;;;;4126659;28;20582;-84
2021/09/06 18:07:07;;;;;;;11.10;9.20;;;20.40;98.30;;;;;;4117374;28;20535;-83
2021/09/06 18:09:10;;;;;;;12.17;9.77;;;20.30;98.30;;;;;;4123924;28;20521;-84
2021/09/06 18:11:13;;;;;;;13.07;8.70;;;20.30;98.30;;;;;;4128539;28;20502;-84
2021/09/06 18:13:16;;;;;;;10.90;9.30;;;20.20;98.30;;;;;;4124446;28;20472;-83
2021/09/06 18:15:19;;;;;;;12.83;9.20;;;20.30;98.30;;;;;;4124211;28;20466;-83
2021/09/06 18:17:22;;;;;;;11.20;9.10;;;20.30;98.30;;;;;;4125733;28;20466;-83
2021/09/06 18:19:25;;;;;;;10.17;8.60;;;20.30;98.30;;;;;;4121444;28;20499;-83
2021/09/06 18:21:29;;;;;;;9.63;8.60;;;20.30;98.30;;;;;;4121923;28;20471;-83
2021/09/06 18:23:33;;;;;;;10.10;8.90;;;20.20;98.30;;;;;;4128890;28;20463;-83
2021/09/06 18:25:36;;;;;;;10.83;8.90;;;20.20;98.30;;;;;;4122110;28;20954;-84
2021/09/06 18:27:39;;;;;;;13.10;8.97;;;20.20;98.30;;;;;;4126471;28;20622;-84
2021/09/06 18:29:42;;;;;;;10.57;9.07;;;20.20;98.30;;;;;;4120766;28;20574;-84
2021/09/06 18:31:45;;;;;;;15.70;10.67;;;20.10;98.30;;;;;;4128421;28;20490;-85
2021/09/06 18:33:48;;;;;;;12.07;9.07;;;20.10;98.30;;;;;;4126028;28;20462;-84
2021/09/06 18:35:51;;;;;;;10.20;7.93;;;20.00;98.30;;;;;;4128622;28;20500;-85
2021/09/06 18:37:55;;;;;;;10.77;8.93;;;20.00;98.30;;;;;;4120933;28;20600;-84
2021/09/06 18:39:58;;;;;;;9.90;8.30;;;20.00;98.30;;;;;;4129662;28;20550;-84
2021/09/06 18:42:02;;;;;;;12.10;9.03;;;19.90;98.30;;;;;;4127016;28;20463;-84
2021/09/06 18:44:06;;;;;;;11.43;8.90;;;19.90;98.30;;;;;;4134799;28;20490;-85
2021/09/06 18:46:09;;;;;;;42.50;32.70;;;19.80;98.30;;;;;;4128603;28;20473;-83
2021/09/06 18:48:12;;;;;;;127.23;82.93;;;19.70;98.30;;;;;;4128853;28;20483;-85
2021/09/06 18:50:15;;;;;;;47.47;32.10;;;19.70;98.30;;;;;;4115688;28;20464;-83
2021/09/06 18:52:19;;;;;;;22.90;16.20;;;19.70;98.30;;;;;;4131912;28;20474;-83
2021/09/06 18:54:23;;;;;;;19.00;12.23;;;19.60;98.30;;;;;;4123924;28;20463;-83
2021/09/06 18:56:26;;;;;;;12.97;11.37;;;19.60;98.30;;;;;;4133902;28;20474;-83
2021/09/06 18:58:29;;;;;;;15.40;12.00;;;19.60;98.30;;;;;;4130221;28;20550;-83
2021/09/06 19:00:32;;;;;;;14.33;12.03;;;19.60;98.30;;;;;;4126278;28;20464;-83
2021/09/06 19:02:35;;;;;;;16.87;14.33;;;19.60;98.30;;;;;;4128688;28;21245;-83
2021/09/06 19:04:38;;;;;;;13.10;11.70;;;19.60;98.30;;;;;;4130972;28;20493;-83
2021/09/06 19:06:43;;;;;;;13.00;11.33;;;19.60;98.30;;;;;;4127610;28;20511;-83
2021/09/06 19:09:09;;;;;;;13.90;10.43;;;19.60;98.30;;;;;;4132522;28;20487;-82
2021/09/06 19:11:14;;;;;;;11.00;9.80;;;19.50;98.30;;;;;;4133173;28;20467;-83
2021/09/06 19:13:18;;;;;;;16.83;10.63;;;19.50;98.30;;;;;;4126505;28;20456;-84
2021/09/06 19:15:21;;;;;;;12.67;10.00;;;19.50;98.30;;;;;;4131806;28;20546;-82
2021/09/06 19:17:24;;;;;;;11.60;9.67;;;19.40;98.30;;;;;;4128384;28;20471;-83
2021/09/06 19:19:27;;;;;;;14.63;9.87;;;19.40;98.30;;;;;;4134476;28;20526;-82
2021/09/06 19:21:30;;;;;;;12.80;10.83;;;19.30;98.30;;;;;;4131868;28;20467;-83
2021/09/06 19:23:33;;;;;;;12.07;9.50;;;19.20;98.30;;;;;;4133995;28;20469;-83
2021/09/06 19:25:36;;;;;;;13.93;11.80;;;19.20;98.30;;;;;;4131232;28;20491;-83
2021/09/06 19:27:40;;;;;;;14.63;9.97;;;19.30;98.30;;;;;;4136313;28;20554;-83
2021/09/06 19:29:44;;;;;;;16.00;11.60;;;19.20;98.30;;;;;;4133467;28;20491;-83
2021/09/06 19:31:47;;;;;;;11.27;10.17;;;19.30;98.30;;;;;;4131199;28;20531;-83
2021/09/06 19:33:50;;;;;;;18.73;12.80;;;19.20;98.30;;;;;;4125531;28;20472;-83
2021/09/06 19:35:53;;;;;;;14.17;11.03;;;19.20;98.30;;;;;;4129162;28;20466;-83